Time;durP1;ratioP1;P1;durP2;ratioP2;P2;SDS_P1;SDS_P2;PMS_P1;PMS_P2;Temp;Humidity;BMP_temperature;BMP_pressure;BME280_temperature;BME280_humidity;BME280_pressure;Samples;Min_cycle;Max_cycle;Signal;HPM_P1;HPM_P2
2022/03/31 00:00:28;;;;;;;23.15;7.40;;;;;;;;;;5027066;28;20025;-71
2022/03/31 00:02:58;;;;;;;33.13;7.90;;;;;;;;;;5031880;28;20026;-71
2022/03/31 00:05:24;;;;;;;26.08;8.93;;;;;;;;;;5036669;28;20029;-71
2022/03/31 00:07:54;;;;;;;29.77;8.45;;;;;;;;;;5033124;28;20021;-71
2022/03/31 00:10:27;;;;;;;29.17;7.90;;;;;;;;;;5038675;28;20217;-71
2022/03/31 00:12:54;;;;;;;29.77;8.33;;;;;;;;;;5023833;28;20395;-71
2022/03/31 00:15:21;;;;;;;34.08;8.57;;;;;;;;;;5030911;28;20377;-71
2022/03/31 00:17:47;;;;;;;22.65;7.88;;;;;;;;;;5024291;28;20021;-71
2022/03/31 00:20:14;;;;;;;35.25;8.68;;;;;;;;;;5032695;28;20513;-71
2022/03/31 00:22:40;;;;;;;29.27;8.48;;;;;;;;;;5032705;28;20038;-71
2022/03/31 00:25:07;;;;;;;30.00;8.90;;;;;;;;;;5028963;28;20106;-70
2022/03/31 00:27:34;;;;;;;30.92;9.65;;;;;;;;;;5031456;28;20383;-71
2022/03/31 00:30:00;;;;;;;27.33;8.60;;;;;;;;;;5031380;28;20033;-70
2022/03/31 00:32:26;;;;;;;30.92;8.93;;;;;;;;;;5032318;28;20018;-71
2022/03/31 00:35:03;;;;;;;24.83;7.30;;;;;;;;;;5046139;28;20018;-71
2022/03/31 00:37:31;;;;;;;25.73;8.30;;;;;;;;;;5035213;28;20034;-72
2022/03/31 00:39:57;;;;;;;23.15;7.65;;;;;;;;;;5033939;28;20123;-71
2022/03/31 00:42:23;;;;;;;20.50;8.05;;;;;;;;;;5032650;28;20030;-71
2022/03/31 00:44:50;;;;;;;26.75;7.80;;;;;;;;;;5030965;28;20061;-70
2022/03/31 00:47:17;;;;;;;28.10;7.65;;;;;;;;;;5031466;28;20045;-71
2022/03/31 00:49:44;;;;;;;27.13;7.57;;;;;;;;;;5032073;28;20017;-70
2022/03/31 00:52:12;;;;;;;26.15;7.70;;;;;;;;;;5026966;28;20548;-71
2022/03/31 00:54:39;;;;;;;25.02;7.35;;;;;;;;;;5031222;28;20403;-71
2022/03/31 00:57:07;;;;;;;23.02;6.95;;;;;;;;;;5032379;28;20025;-71
2022/03/31 00:59:33;;;;;;;22.00;7.47;;;;;;;;;;5032373;28;20105;-70
2022/03/31 01:01:59;;;;;;;23.50;7.40;;;;;;;;;;5029691;28;20041;-70
2022/03/31 01:04:30;;;;;;;21.70;6.88;;;;;;;;;;5032672;28;20018;-71
2022/03/31 01:06:57;;;;;;;25.88;7.10;;;;;;;;;;5031280;28;20033;-71
2022/03/31 01:09:23;;;;;;;19.42;7.07;;;;;;;;;;5032049;28;20548;-70
2022/03/31 01:11:50;;;;;;;21.80;6.60;;;;;;;;;;5033212;28;20085;-71
2022/03/31 01:14:16;;;;;;;21.58;6.85;;;;;;;;;;5031018;28;20048;-71
2022/03/31 01:16:42;;;;;;;27.77;7.45;;;;;;;;;;5033149;28;20026;-72
2022/03/31 01:19:09;;;;;;;31.13;7.05;;;;;;;;;;5035715;28;20030;-71
2022/03/31 01:21:39;;;;;;;21.50;6.47;;;;;;;;;;5020562;28;20383;-70
2022/03/31 01:24:06;;;;;;;19.60;7.07;;;;;;;;;;5033310;28;20025;-70
2022/03/31 01:26:34;;;;;;;21.05;6.47;;;;;;;;;;5031958;28;20036;-71
2022/03/31 01:29:00;;;;;;;20.50;6.93;;;;;;;;;;5025904;28;20483;-71
2022/03/31 01:31:26;;;;;;;23.02;6.70;;;;;;;;;;5028487;28;20038;-71
2022/03/31 01:33:53;;;;;;;20.08;6.75;;;;;;;;;;5031504;28;20025;-71
2022/03/31 01:36:20;;;;;;;26.20;6.93;;;;;;;;;;5034322;28;20027;-71
2022/03/31 01:38:47;;;;;;;18.50;6.63;;;;;;;;;;5033435;28;20380;-71
2022/03/31 01:41:13;;;;;;;17.70;6.45;;;;;;;;;;5015872;28;20065;-71
2022/03/31 01:43:42;;;;;;;27.27;7.15;;;;;;;;;;5012684;28;20030;-71
2022/03/31 01:46:12;;;;;;;19.85;7.03;;;;;;;;;;5033117;28;20042;-71
2022/03/31 01:48:38;;;;;;;20.02;7.85;;;;;;;;;;5014828;28;20040;-71
2022/03/31 01:51:04;;;;;;;29.58;7.75;;;;;;;;;;5011855;28;20058;-71
2022/03/31 01:53:33;;;;;;;19.00;6.38;;;;;;;;;;5011702;28;20165;-70
2022/03/31 01:56:01;;;;;;;19.52;6.78;;;;;;;;;;5005964;28;20377;-71
2022/03/31 01:58:27;;;;;;;18.33;6.28;;;;;;;;;;5030860;28;20121;-71
2022/03/31 02:00:53;;;;;;;15.23;6.35;;;;;;;;;;5015677;28;20057;-71
2022/03/31 02:03:19;;;;;;;22.05;7.13;;;;;;;;;;5015669;28;20483;-70
2022/03/31 02:05:48;;;;;;;21.67;6.75;;;;;;;;;;5027545;28;20053;-71
2022/03/31 02:08:14;;;;;;;23.13;6.53;;;;;;;;;;5021308;28;20033;-71
2022/03/31 02:10:41;;;;;;;20.90;6.13;;;;;;;;;;5018147;28;20585;-71
2022/03/31 02:13:08;;;;;;;20.27;5.70;;;;;;;;;;5007492;28;20058;-71
2022/03/31 02:15:37;;;;;;;19.17;6.70;;;;;;;;;;5021783;28;20034;-71
2022/03/31 02:18:03;;;;;;;17.83;6.60;;;;;;;;;;5014755;28;20030;-71
2022/03/31 02:20:30;;;;;;;19.35;5.97;;;;;;;;;;5008746;28;20022;-71
2022/03/31 02:23:04;;;;;;;17.70;6.05;;;;;;;;;;5013925;28;20033;-71
2022/03/31 02:25:30;;;;;;;19.85;6.35;;;;;;;;;;5010761;28;20038;-70
2022/03/31 02:27:58;;;;;;;17.40;5.65;;;;;;;;;;5011098;28;20488;-70
2022/03/31 02:30:24;;;;;;;18.02;6.32;;;;;;;;;;5012429;28;20038;-70
2022/03/31 02:33:00;;;;;;;12.60;6.13;;;;;;;;;;5016115;28;20022;-71
2022/03/31 02:35:27;;;;;;;19.15;5.57;;;;;;;;;;5008392;28;20026;-71
2022/03/31 02:38:24;;;;;;;16.38;5.43;;;;;;;;;;5020823;28;20188;-71
2022/03/31 02:40:52;;;;;;;18.75;5.60;;;;;;;;;;5052315;28;20045;-72
2022/03/31 02:43:18;;;;;;;17.45;6.05;;;;;;;;;;5025418;28;20483;-70
2022/03/31 02:45:44;;;;;;;16.92;5.68;;;;;;;;;;5034738;28;20041;-71
2022/03/31 02:48:10;;;;;;;15.30;5.38;;;;;;;;;;5032640;28;20443;-70
2022/03/31 02:50:37;;;;;;;14.77;5.35;;;;;;;;;;5029023;28;20057;-70
2022/03/31 02:55:52;;;;;;;12.23;4.97;;;;;;;;;;5031089;28;20109;-71
2022/03/31 02:58:19;;;;;;;15.82;5.78;;;;;;;;;;5034111;28;20403;-71
2022/03/31 03:00:48;;;;;;;19.42;5.57;;;;;;;;;;5026576;28;20466;-69
2022/03/31 03:03:14;;;;;;;16.15;5.90;;;;;;;;;;5034601;28;20031;-71
2022/03/31 03:05:42;;;;;;;16.13;5.82;;;;;;;;;;5034055;28;20416;-70
2022/03/31 03:08:08;;;;;;;17.67;5.90;;;;;;;;;;5033936;28;20064;-72
2022/03/31 03:10:34;;;;;;;15.80;5.55;;;;;;;;;;5034025;28;20025;-70
2022/03/31 03:13:00;;;;;;;15.50;5.68;;;;;;;;;;5036412;28;20029;-71
2022/03/31 03:15:27;;;;;;;18.52;6.28;;;;;;;;;;5033644;28;20045;-71
2022/03/31 03:17:55;;;;;;;21.67;6.53;;;;;;;;;;5033375;28;20033;-71
2022/03/31 03:20:28;;;;;;;13.60;6.28;;;;;;;;;;5015960;28;20471;-71
2022/03/31 03:22:55;;;;;;;19.50;6.93;;;;;;;;;;5033161;28;20533;-71
2022/03/31 03:25:23;;;;;;;17.80;6.32;;;;;;;;;;5032864;28;20393;-71
2022/03/31 03:27:52;;;;;;;23.40;6.85;;;;;;;;;;5022585;28;20054;-71
2022/03/31 03:30:20;;;;;;;18.30;6.38;;;;;;;;;;5028252;28;20064;-72
2022/03/31 03:32:46;;;;;;;20.27;6.15;;;;;;;;;;5024156;28;20025;-71
2022/03/31 03:35:13;;;;;;;19.50;6.40;;;;;;;;;;5032186;28;20022;-71
2022/03/31 03:37:41;;;;;;;16.10;5.97;;;;;;;;;;5032920;28;20478;-71
2022/03/31 03:40:10;;;;;;;19.33;6.18;;;;;;;;;;5022207;28;20053;-71
2022/03/31 03:42:38;;;;;;;20.75;7.22;;;;;;;;;;5038510;28;20112;-70
2022/03/31 03:45:05;;;;;;;15.35;6.15;;;;;;;;;;5030543;28;20047;-71
2022/03/31 03:47:34;;;;;;;15.48;6.22;;;;;;;;;;5021326;28;20028;-71
2022/03/31 03:50:00;;;;;;;17.48;6.65;;;;;;;;;;5036490;28;20155;-70
2022/03/31 03:52:26;;;;;;;17.30;6.00;;;;;;;;;;5026231;28;20030;-70
2022/03/31 03:54:52;;;;;;;14.95;5.72;;;;;;;;;;5025075;28;20068;-71
2022/03/31 03:57:18;;;;;;;14.32;5.80;;;;;;;;;;5042247;28;20033;-71
2022/03/31 03:59:45;;;;;;;15.77;5.93;;;;;;;;;;5031045;28;20390;-71
2022/03/31 04:02:11;;;;;;;13.85;5.90;;;;;;;;;;5032556;28;20448;-71
2022/03/31 04:04:37;;;;;;;13.88;5.32;;;;;;;;;;5032415;28;20038;-71
2022/03/31 04:07:03;;;;;;;14.13;5.22;;;;;;;;;;5032833;28;20026;-70
2022/03/31 04:09:29;;;;;;;10.85;5.07;;;;;;;;;;5033605;28;20136;-71
2022/03/31 04:11:56;;;;;;;14.55;5.78;;;;;;;;;;5036916;28;20024;-71
2022/03/31 04:14:25;;;;;;;16.00;5.75;;;;;;;;;;5032515;28;20025;-71
2022/03/31 04:16:51;;;;;;;10.40;4.80;;;;;;;;;;5033417;28;20033;-71
2022/03/31 04:19:24;;;;;;;13.13;5.30;;;;;;;;;;5035991;28;20040;-71
2022/03/31 04:21:55;;;;;;;12.32;5.05;;;;;;;;;;5035239;28;20113;-70
2022/03/31 04:24:26;;;;;;;15.05;5.82;;;;;;;;;;5033215;28;20025;-72
2022/03/31 04:26:52;;;;;;;12.52;5.05;;;;;;;;;;5038419;28;20041;-72
2022/03/31 04:29:18;;;;;;;14.15;6.65;;;;;;;;;;5035532;28;20053;-71
2022/03/31 04:31:45;;;;;;;28.30;24.90;;;;;;;;;;5033108;28;20037;-71
2022/03/31 04:34:13;;;;;;;12.20;5.05;;;;;;;;;;5024544;28;20022;-69
2022/03/31 04:36:39;;;;;;;10.30;4.45;;;;;;;;;;5035356;28;20089;-71
2022/03/31 04:39:05;;;;;;;10.98;4.28;;;;;;;;;;5042368;28;20045;-75
2022/03/31 04:41:34;;;;;;;12.55;4.30;;;;;;;;;;5036469;28;20029;-72
2022/03/31 04:44:00;;;;;;;11.07;3.90;;;;;;;;;;5031957;28;20057;-70
2022/03/31 04:46:26;;;;;;;10.35;4.00;;;;;;;;;;5030284;28;20098;-69
2022/03/31 04:48:55;;;;;;;12.68;4.60;;;;;;;;;;5021203;28;20033;-69
2022/03/31 04:51:21;;;;;;;9.40;3.70;;;;;;;;;;5019886;28;20387;-68
2022/03/31 04:53:47;;;;;;;11.95;4.32;;;;;;;;;;5018240;28;20464;-69
2022/03/31 04:56:15;;;;;;;9.93;4.53;;;;;;;;;;5017604;28;20560;-70
2022/03/31 04:58:41;;;;;;;10.50;4.28;;;;;;;;;;5019655;28;20022;-71
2022/03/31 05:01:07;;;;;;;7.40;3.70;;;;;;;;;;5020945;28;20040;-68
2022/03/31 05:16:22;;;;;;;10.60;4.10;;;;;;;;;;5081090;27;20388;-72
2022/03/31 05:18:48;;;;;;;13.25;3.88;;;;;;;;;;5062232;28;20475;-73
2022/03/31 05:21:14;;;;;;;15.60;4.53;;;;;;;;;;5052825;28;20092;-72
2022/03/31 05:23:58;;;;;;;10.15;3.90;;;;;;;;;;5064961;28;20808;-74
2022/03/31 05:26:24;;;;;;;;;;;;;;;;;;5061541;28;20030;-72
2022/03/31 05:28:50;;;;;;;10.45;4.35;;;;;;;;;;5062600;28;19937;-69
2022/03/31 05:31:16;;;;;;;9.02;3.92;;;;;;;;;;5056707;28;20033;-68
2022/03/31 05:33:42;;;;;;;10.18;4.15;;;;;;;;;;5049439;28;20024;-72
2022/03/31 05:36:08;;;;;;;10.95;4.28;;;;;;;;;;5058814;28;20089;-72
2022/03/31 05:38:34;;;;;;;12.80;4.82;;;;;;;;;;5047062;28;20029;-67
2022/03/31 05:41:01;;;;;;;9.07;4.28;;;;;;;;;;5053533;28;20020;-67
2022/03/31 05:43:27;;;;;;;15.13;4.55;;;;;;;;;;5045009;28;20021;-69
2022/03/31 05:45:53;;;;;;;10.77;4.35;;;;;;;;;;5057049;28;20059;-74
2022/03/31 05:48:19;;;;;;;9.93;4.45;;;;;;;;;;5059924;28;20021;-76
2022/03/31 05:50:45;;;;;;;13.23;4.93;;;;;;;;;;5057922;28;20032;-79
2022/03/31 05:53:13;;;;;;;15.00;5.20;;;;;;;;;;5047997;28;20030;-85
2022/03/31 05:55:40;;;;;;;12.35;5.38;;;;;;;;;;5033125;28;20049;-84
2022/03/31 05:58:07;;;;;;;16.27;5.72;;;;;;;;;;5057823;28;20037;-74
2022/03/31 06:00:33;;;;;;;18.38;6.05;;;;;;;;;;5051966;28;20036;-72
2022/03/31 06:02:59;;;;;;;12.18;5.63;;;;;;;;;;5045194;28;20033;-71
2022/03/31 06:05:25;;;;;;;13.15;5.63;;;;;;;;;;5044524;28;20387;-73
2022/03/31 06:07:53;;;;;;;14.45;5.78;;;;;;;;;;5059054;28;20108;-71
2022/03/31 06:10:23;;;;;;;20.08;6.63;;;;;;;;;;5054070;28;20048;-71
2022/03/31 06:12:51;;;;;;;19.13;6.90;;;;;;;;;;5050812;28;20600;-72
2022/03/31 06:15:18;;;;;;;17.10;6.43;;;;;;;;;;5000573;28;20047;-77
2022/03/31 06:17:45;;;;;;;16.30;6.13;;;;;;;;;;4960236;28;20037;-70
2022/03/31 06:20:12;;;;;;;17.77;6.20;;;;;;;;;;4957587;28;20023;-71
2022/03/31 06:22:39;;;;;;;20.80;6.70;;;;;;;;;;4956031;28;20106;-70
2022/03/31 06:25:06;;;;;;;17.27;6.63;;;;;;;;;;4955082;28;20118;-71
2022/03/31 06:27:33;;;;;;;16.00;7.05;;;;;;;;;;4957036;28;21927;-71
2022/03/31 06:30:00;;;;;;;19.17;7.20;;;;;;;;;;4965279;28;20039;-78
2022/03/31 06:32:26;;;;;;;21.00;7.43;;;;;;;;;;4959637;28;20030;-80
2022/03/31 06:34:52;;;;;;;19.45;6.75;;;;;;;;;;4960012;28;20037;-83
2022/03/31 06:37:20;;;;;;;23.88;6.82;;;;;;;;;;5025947;28;20030;-76
2022/03/31 06:39:46;;;;;;;20.77;7.13;;;;;;;;;;4958853;28;20062;-77
2022/03/31 06:42:12;;;;;;;15.80;6.20;;;;;;;;;;4959659;28;20023;-78
2022/03/31 06:44:39;;;;;;;15.35;6.32;;;;;;;;;;5031786;28;20076;-76
2022/03/31 06:47:05;;;;;;;17.67;6.88;;;;;;;;;;4961526;28;20023;-77
2022/03/31 06:49:32;;;;;;;18.05;6.97;;;;;;;;;;4956427;28;20106;-74
2022/03/31 06:51:58;;;;;;;19.08;5.85;;;;;;;;;;4953721;28;20392;-73
2022/03/31 06:54:24;;;;;;;17.25;6.20;;;;;;;;;;4963777;28;20019;-72
2022/03/31 06:56:51;;;;;;;20.05;6.53;;;;;;;;;;4957015;28;20038;-73
2022/03/31 06:59:20;;;;;;;16.60;6.25;;;;;;;;;;5059258;28;20400;-79
2022/03/31 07:01:46;;;;;;;18.48;5.57;;;;;;;;;;4982061;28;20028;-77
2022/03/31 07:04:13;;;;;;;13.77;5.53;;;;;;;;;;4989227;28;21636;-71
2022/03/31 07:06:39;;;;;;;16.40;5.90;;;;;;;;;;4964428;28;20126;-71
2022/03/31 07:09:06;;;;;;;16.88;5.90;;;;;;;;;;4994306;28;20098;-71
2022/03/31 07:11:34;;;;;;;14.07;5.55;;;;;;;;;;4971879;28;20035;-70
2022/03/31 07:14:01;;;;;;;19.40;5.60;;;;;;;;;;4956072;28;20046;-72
2022/03/31 07:16:29;;;;;;;17.80;6.22;;;;;;;;;;4975227;28;20051;-71
2022/03/31 07:18:55;;;;;;;20.10;6.78;;;;;;;;;;4987798;28;20111;-68
2022/03/31 07:21:23;;;;;;;19.90;6.90;;;;;;;;;;4959065;28;20055;-74
2022/03/31 07:23:49;;;;;;;16.80;5.85;;;;;;;;;;5032652;28;20436;-79
2022/03/31 07:26:18;;;;;;;15.98;6.68;;;;;;;;;;4954590;28;20034;-77
2022/03/31 07:28:44;;;;;;;16.33;5.90;;;;;;;;;;4953330;28;20362;-83
2022/03/31 07:31:10;;;;;;;13.55;6.25;;;;;;;;;;4966381;28;20384;-79
2022/03/31 07:33:36;;;;;;;18.67;6.05;;;;;;;;;;5027056;28;20456;-74
2022/03/31 07:36:02;;;;;;;31.98;7.25;;;;;;;;;;4954377;28;20066;-80
2022/03/31 07:38:28;;;;;;;21.95;7.15;;;;;;;;;;4957440;28;20118;-72
2022/03/31 07:40:55;;;;;;;21.27;7.70;;;;;;;;;;4956296;28;20070;-70
2022/03/31 07:43:21;;;;;;;19.27;6.90;;;;;;;;;;4960371;28;20035;-74
2022/03/31 07:45:47;;;;;;;21.38;6.82;;;;;;;;;;4956446;28;20130;-74
2022/03/31 07:48:15;;;;;;;21.13;6.18;;;;;;;;;;4962911;28;20026;-77
2022/03/31 07:50:42;;;;;;;17.33;5.93;;;;;;;;;;4964577;28;20024;-71
2022/03/31 07:53:09;;;;;;;19.95;5.70;;;;;;;;;;4960121;28;20027;-72
2022/03/31 07:55:35;;;;;;;19.90;6.10;;;;;;;;;;5026180;28;20472;-71
2022/03/31 07:58:02;;;;;;;19.60;6.85;;;;;;;;;;4960964;28;20480;-73
2022/03/31 08:00:29;;;;;;;15.73;6.13;;;;;;;;;;4952964;28;20034;-80
2022/03/31 08:02:55;;;;;;;16.05;6.35;;;;;;;;;;4952458;28;20027;-77
2022/03/31 08:05:25;;;;;;;15.70;6.10;;;;;;;;;;4955885;28;20043;-74
2022/03/31 08:07:52;;;;;;;18.23;5.75;;;;;;;;;;4953966;28;20131;-67
2022/03/31 08:10:21;;;;;;;19.58;5.97;;;;;;;;;;4956398;28;20034;-74
2022/03/31 08:12:47;;;;;;;21.10;6.03;;;;;;;;;;4957009;28;20164;-74
2022/03/31 08:15:15;;;;;;;22.38;6.18;;;;;;;;;;4957746;28;20492;-81
2022/03/31 08:17:41;;;;;;;19.20;5.60;;;;;;;;;;4945351;28;20034;-71
2022/03/31 08:20:11;;;;;;;17.55;5.72;;;;;;;;;;4954413;28;20031;-71
2022/03/31 08:22:38;;;;;;;20.75;5.75;;;;;;;;;;5028043;28;20026;-72
2022/03/31 08:25:05;;;;;;;17.42;6.10;;;;;;;;;;4963931;28;20388;-84
2022/03/31 08:27:32;;;;;;;19.42;6.25;;;;;;;;;;5015434;28;20023;-86
2022/03/31 08:29:59;;;;;;;20.63;5.95;;;;;;;;;;5041752;28;20086;-83
2022/03/31 08:32:25;;;;;;;23.48;6.43;;;;;;;;;;5021392;28;20023;-68
2022/03/31 08:34:51;;;;;;;22.35;6.25;;;;;;;;;;4961831;28;20027;-70
2022/03/31 08:37:18;;;;;;;22.15;6.90;;;;;;;;;;4959592;28;20023;-70
2022/03/31 08:39:44;;;;;;;21.95;6.20;;;;;;;;;;4955163;28;20046;-67
2022/03/31 08:42:11;;;;;;;23.60;6.03;;;;;;;;;;4962327;28;20073;-68
2022/03/31 08:44:40;;;;;;;16.58;5.70;;;;;;;;;;4954700;28;20167;-68
2022/03/31 08:47:08;;;;;;;24.40;6.38;;;;;;;;;;4965753;28;20535;-68
2022/03/31 08:49:35;;;;;;;22.05;6.20;;;;;;;;;;4954378;28;20035;-67
2022/03/31 08:52:02;;;;;;;18.77;6.10;;;;;;;;;;4952623;28;20031;-69
2022/03/31 08:54:32;;;;;;;19.40;5.78;;;;;;;;;;4959035;28;20566;-70
2022/03/31 08:56:58;;;;;;;19.48;5.70;;;;;;;;;;5010426;28;20109;-67
2022/03/31 08:59:25;;;;;;;19.92;5.53;;;;;;;;;;4978719;28;20032;-84
2022/03/31 09:01:51;;;;;;;20.98;5.90;;;;;;;;;;5022388;28;20161;-86
2022/03/31 09:04:23;;;;;;;19.00;5.78;;;;;;;;;;4957172;28;20106;-68
2022/03/31 09:06:50;;;;;;;19.48;5.60;;;;;;;;;;4962862;28;20042;-75
2022/03/31 09:09:19;;;;;;;17.35;5.72;;;;;;;;;;4963016;28;20030;-75
2022/03/31 09:11:46;;;;;;;21.98;5.97;;;;;;;;;;4965008;28;20065;-81
2022/03/31 09:14:13;;;;;;;15.85;6.10;;;;;;;;;;4960193;28;20031;-77
2022/03/31 09:16:40;;;;;;;25.73;6.30;;;;;;;;;;5031709;28;20059;-75
2022/03/31 09:19:10;;;;;;;22.25;6.50;;;;;;;;;;4965387;28;20045;-77
2022/03/31 09:21:57;;;;;;;13.30;5.57;;;;;;;;;;5025700;28;20030;-72
2022/03/31 09:24:26;;;;;;;23.75;7.45;;;;;;;;;;4950689;28;20037;-80
2022/03/31 09:26:52;;;;;;;18.63;5.60;;;;;;;;;;4977052;28;20037;-78
2022/03/31 09:29:20;;;;;;;22.27;8.02;;;;;;;;;;4970185;28;20029;-73
2022/03/31 09:31:47;;;;;;;31.00;9.32;;;;;;;;;;4966536;28;20058;-76
2022/03/31 09:34:13;;;;;;;21.48;5.85;;;;;;;;;;4955086;28;20027;-80
2022/03/31 09:36:43;;;;;;;19.05;5.00;;;;;;;;;;4957383;28;20038;-78
2022/03/31 09:39:16;;;;;;;27.70;8.80;;;;;;;;;;4952921;28;20027;-77
2022/03/31 09:41:43;;;;;;;17.92;4.55;;;;;;;;;;4956583;28;20039;-85
2022/03/31 09:44:13;;;;;;;17.42;5.03;;;;;;;;;;4956935;28;20031;-75
2022/03/31 09:46:40;;;;;;;14.65;4.30;;;;;;;;;;4951359;28;20043;-75
2022/03/31 09:49:11;;;;;;;15.57;4.15;;;;;;;;;;4966628;28;20015;-75
2022/03/31 09:51:38;;;;;;;16.88;4.45;;;;;;;;;;4968256;28;20385;-78
2022/03/31 09:54:04;;;;;;;19.80;4.18;;;;;;;;;;4959435;28;20492;-77
2022/03/31 09:56:38;;;;;;;15.60;4.50;;;;;;;;;;4994837;28;20029;-77
2022/03/31 09:59:06;;;;;;;15.02;4.32;;;;;;;;;;4968889;28;20022;-74
2022/03/31 10:01:32;;;;;;;14.90;4.40;;;;;;;;;;4966835;28;20042;-70
2022/03/31 10:03:58;;;;;;;16.77;4.90;;;;;;;;;;4959148;28;20110;-71
2022/03/31 10:06:25;;;;;;;19.52;4.65;;;;;;;;;;4960650;28;20033;-68
2022/03/31 10:08:51;;;;;;;13.63;4.20;;;;;;;;;;4968820;28;20031;-67
2022/03/31 10:11:19;;;;;;;18.80;4.35;;;;;;;;;;4974696;28;20106;-79
2022/03/31 10:13:55;;;;;;;19.23;5.22;;;;;;;;;;4959171;28;20115;-66
2022/03/31 10:16:27;;;;;;;17.40;4.90;;;;;;;;;;5023666;28;20100;-68
2022/03/31 10:18:53;;;;;;;15.90;4.45;;;;;;;;;;4955895;28;20037;-67
2022/03/31 10:21:29;;;;;;;21.35;5.65;;;;;;;;;;4953876;28;20520;-68
2022/03/31 10:26:40;;;;;;;16.05;4.18;;;;;;;;;;4965505;28;20054;-71
2022/03/31 10:29:11;;;;;;;17.48;5.40;;;;;;;;;;4960566;28;20023;-80
2022/03/31 10:31:41;;;;;;;17.77;4.63;;;;;;;;;;4962925;28;20077;-78
2022/03/31 10:34:10;;;;;;;18.20;4.85;;;;;;;;;;4969650;28;20096;-79
2022/03/31 10:36:40;;;;;;;17.42;4.93;;;;;;;;;;4968749;28;20044;-70
2022/03/31 10:39:16;;;;;;;21.08;5.75;;;;;;;;;;4966474;28;20477;-73
2022/03/31 10:41:44;;;;;;;23.35;5.32;;;;;;;;;;5020297;28;20059;-69
2022/03/31 10:44:14;;;;;;;16.75;5.57;;;;;;;;;;4972699;28;20486;-74
2022/03/31 10:46:41;;;;;;;19.50;5.65;;;;;;;;;;4956441;28;20150;-74
2022/03/31 10:49:12;;;;;;;17.48;5.15;;;;;;;;;;4956127;28;20035;-70
2022/03/31 10:51:41;;;;;;;15.70;4.55;;;;;;;;;;4960013;28;20031;-71
2022/03/31 10:54:09;;;;;;;20.60;5.22;;;;;;;;;;4957960;28;20029;-67
2022/03/31 10:56:35;;;;;;;25.95;5.18;;;;;;;;;;4961591;28;20435;-69
2022/03/31 10:59:08;;;;;;;13.25;4.32;;;;;;;;;;4959872;28;20489;-77
2022/03/31 11:01:40;;;;;;;15.45;5.00;;;;;;;;;;4989825;28;20075;-74
2022/03/31 11:04:08;;;;;;;13.57;4.93;;;;;;;;;;4965539;28;20396;-69
2022/03/31 11:06:48;;;;;;;13.98;4.45;;;;;;;;;;4966362;28;20031;-73
2022/03/31 11:09:26;;;;;;;14.13;4.00;;;;;;;;;;4962771;28;20031;-76
2022/03/31 11:11:53;;;;;;;15.07;4.35;;;;;;;;;;4957072;28;20036;-83
2022/03/31 11:14:19;;;;;;;19.38;4.97;;;;;;;;;;4954663;28;20070;-81
2022/03/31 11:16:45;;;;;;;15.48;4.80;;;;;;;;;;4966683;28;20043;-71
2022/03/31 11:19:13;;;;;;;10.48;4.00;;;;;;;;;;4993821;28;20074;-70
2022/03/31 11:21:40;;;;;;;15.57;5.35;;;;;;;;;;5049413;28;20047;-70
2022/03/31 11:24:08;;;;;;;12.27;4.57;;;;;;;;;;5019226;28;20027;-70
2022/03/31 11:26:35;;;;;;;11.18;4.97;;;;;;;;;;4959445;28;20093;-72
2022/03/31 11:29:01;;;;;;;12.55;4.72;;;;;;;;;;4960859;28;20034;-74
2022/03/31 11:31:27;;;;;;;8.80;2.85;;;;;;;;;;5050622;28;20378;-71
2022/03/31 11:33:55;;;;;;;7.93;3.08;;;;;;;;;;4954373;28;20153;-70
2022/03/31 11:36:22;;;;;;;5.18;2.63;;;;;;;;;;4953066;28;20032;-71
2022/03/31 11:38:57;;;;;;;8.02;2.97;;;;;;;;;;4979230;28;20046;-73
2022/03/31 11:41:24;;;;;;;10.85;3.38;;;;;;;;;;4958020;28;20024;-71
2022/03/31 11:43:50;;;;;;;7.00;2.78;;;;;;;;;;5015074;28;20112;-71
2022/03/31 11:46:16;;;;;;;8.38;3.30;;;;;;;;;;5054408;28;20459;-69
2022/03/31 11:48:45;;;;;;;9.90;3.53;;;;;;;;;;5027181;28;20033;-71
2022/03/31 11:51:11;;;;;;;6.75;2.95;;;;;;;;;;4958460;28;20030;-71
2022/03/31 11:53:41;;;;;;;11.75;3.22;;;;;;;;;;4954028;28;20023;-82
2022/03/31 11:56:10;;;;;;;8.77;2.97;;;;;;;;;;5047275;28;20023;-76
2022/03/31 11:58:48;;;;;;;7.70;2.85;;;;;;;;;;4959142;28;20027;-77
2022/03/31 12:01:19;;;;;;;9.27;2.95;;;;;;;;;;4953364;28;20062;-80
2022/03/31 12:03:45;;;;;;;11.48;4.00;;;;;;;;;;4962931;28;20550;-77
2022/03/31 12:06:38;;;;;;;11.93;3.38;;;;;;;;;;4968420;28;20134;-72
2022/03/31 12:09:06;;;;;;;7.05;3.28;;;;;;;;;;5055335;28;20027;-71
2022/03/31 12:11:32;;;;;;;10.38;3.67;;;;;;;;;;4955444;28;20081;-70
2022/03/31 12:14:00;;;;;;;11.48;3.30;;;;;;;;;;4952249;28;20055;-71
2022/03/31 12:16:27;;;;;;;11.30;3.60;;;;;;;;;;4956233;28;20048;-71
2022/03/31 12:18:57;;;;;;;10.60;3.75;;;;;;;;;;4964371;28;20030;-71
2022/03/31 12:21:24;;;;;;;9.45;4.05;;;;;;;;;;4968987;28;20037;-70
2022/03/31 12:23:50;;;;;;;11.65;3.88;;;;;;;;;;4958631;28;20028;-70
2022/03/31 12:26:23;;;;;;;14.30;4.00;;;;;;;;;;4950656;28;20062;-69
2022/03/31 12:29:01;;;;;;;7.63;3.85;;;;;;;;;;5004161;28;20040;-69
2022/03/31 12:31:34;;;;;;;10.32;3.85;;;;;;;;;;4958158;28;20016;-70
2022/03/31 12:34:04;;;;;;;11.50;3.87;;;;;;;;;;4953823;28;20046;-70
2022/03/31 12:36:34;;;;;;;11.32;5.13;;;;;;;;;;4971804;28;20021;-73
2022/03/31 12:39:04;;;;;;;11.20;3.72;;;;;;;;;;5029674;28;20034;-72
2022/03/31 12:41:36;;;;;;;10.80;4.10;;;;;;;;;;4963901;28;20027;-74
2022/03/31 12:44:10;;;;;;;12.10;5.50;;;;;;;;;;4954922;28;20074;-69
2022/03/31 12:46:36;;;;;;;12.85;4.97;;;;;;;;;;4958116;28;20035;-69
2022/03/31 12:49:06;;;;;;;10.73;4.13;;;;;;;;;;5022190;28;20384;-68
2022/03/31 12:51:52;;;;;;;11.70;4.70;;;;;;;;;;4959052;28;20031;-68
2022/03/31 12:54:21;;;;;;;14.65;5.30;;;;;;;;;;4955914;28;20023;-69
2022/03/31 12:56:48;;;;;;;20.08;5.50;;;;;;;;;;4959164;28;20048;-67
2022/03/31 12:59:18;;;;;;;14.35;5.90;;;;;;;;;;4968336;28;20027;-68
2022/03/31 13:01:57;;;;;;;16.48;6.45;;;;;;;;;;4955635;28;20081;-67
2022/03/31 13:04:24;;;;;;;20.42;7.53;;;;;;;;;;4956516;28;20035;-68
2022/03/31 13:06:50;;;;;;;17.83;6.35;;;;;;;;;;4962495;28;20035;-67
2022/03/31 13:09:16;;;;;;;19.10;6.93;;;;;;;;;;4980328;28;20029;-68
2022/03/31 13:11:43;;;;;;;16.85;6.30;;;;;;;;;;4958289;28;20032;-73
2022/03/31 13:14:10;;;;;;;15.18;6.63;;;;;;;;;;4960002;28;20024;-72
2022/03/31 13:16:37;;;;;;;17.17;6.40;;;;;;;;;;5022882;28;20437;-72
2022/03/31 13:19:04;;;;;;;16.90;7.30;;;;;;;;;;4963970;28;20361;-74
2022/03/31 13:21:32;;;;;;;18.85;6.72;;;;;;;;;;4963242;28;20058;-73
2022/03/31 13:23:58;;;;;;;14.52;6.38;;;;;;;;;;4950329;28;20030;-73
2022/03/31 13:26:26;;;;;;;14.70;6.38;;;;;;;;;;4953914;28;20562;-73
2022/03/31 13:28:53;;;;;;;18.70;6.75;;;;;;;;;;5037170;28;20042;-73
2022/03/31 13:31:20;;;;;;;18.33;8.30;;;;;;;;;;4967213;28;20023;-73
2022/03/31 13:33:46;;;;;;;23.88;9.55;;;;;;;;;;5025602;28;20045;-73
2022/03/31 13:36:12;;;;;;;17.33;7.05;;;;;;;;;;4939185;28;20026;-73
2022/03/31 13:38:38;;;;;;;19.75;7.38;;;;;;;;;;5041822;28;20044;-72
2022/03/31 13:41:04;;;;;;;24.15;8.00;;;;;;;;;;4943872;28;20027;-71
2022/03/31 13:43:31;;;;;;;23.77;8.45;;;;;;;;;;5023660;28;20022;-72
2022/03/31 13:45:58;;;;;;;22.30;8.20;;;;;;;;;;4956624;28;20028;-75
2022/03/31 13:48:24;;;;;;;23.95;8.95;;;;;;;;;;4952719;28;20035;-77
2022/03/31 13:50:50;;;;;;;23.42;9.35;;;;;;;;;;4956523;28;20038;-75
2022/03/31 13:56:01;;;;;;;25.02;8.75;;;;;;;;;;4964251;28;20042;-76
2022/03/31 14:01:31;;;;;;;;;;;;;;;;;;4996700;28;20395;-78
2022/03/31 14:03:57;;;;;;;25.98;9.55;;;;;;;;;;4992160;28;20390;-78
2022/03/31 14:06:24;;;;;;;26.42;9.23;;;;;;;;;;4993987;28;20555;-73
2022/03/31 14:09:06;;;;;;;;;;;;;;;;;;;;;
2022/03/31 14:11:34;;;;;;;24.65;12.65;;;;;;;;;;4995632;28;20038;-83
2022/03/31 14:14:04;;;;;;;21.42;9.27;;;;;;;;;;4977709;28;20483;-71
2022/03/31 14:16:31;;;;;;;31.98;11.18;;;;;;;;;;4999737;28;20061;-67
2022/03/31 14:18:58;;;;;;;29.45;12.13;;;;;;;;;;4987439;28;20033;-67
2022/03/31 14:21:25;;;;;;;28.77;10.55;;;;;;;;;;5000776;28;20500;-66
2022/03/31 14:23:52;;;;;;;24.90;10.85;;;;;;;;;;4993371;28;20081;-67
2022/03/31 14:26:19;;;;;;;25.75;10.77;;;;;;;;;;5001243;28;20061;-72
2022/03/31 14:28:46;;;;;;;26.92;10.52;;;;;;;;;;5002585;28;20027;-71
2022/03/31 14:31:13;;;;;;;27.00;10.50;;;;;;;;;;4997603;28;20037;-71
2022/03/31 14:33:40;;;;;;;24.63;10.52;;;;;;;;;;4952810;28;20115;-70
2022/03/31 14:36:07;;;;;;;23.20;9.38;;;;;;;;;;5028183;28;20034;-72
2022/03/31 14:38:33;;;;;;;26.70;10.23;;;;;;;;;;4959039;28;20102;-73
2022/03/31 14:41:09;;;;;;;23.65;9.23;;;;;;;;;;4962500;28;20076;-70
2022/03/31 14:43:35;;;;;;;21.15;9.23;;;;;;;;;;4947075;28;20164;-72
2022/03/31 14:46:01;;;;;;;23.20;9.18;;;;;;;;;;4960551;28;20473;-72
2022/03/31 14:48:27;;;;;;;19.27;8.60;;;;;;;;;;5026163;28;20020;-73
2022/03/31 14:50:54;;;;;;;21.40;9.55;;;;;;;;;;4962456;28;20395;-70
2022/03/31 14:53:20;;;;;;;22.88;9.70;;;;;;;;;;4981012;28;20030;-74
2022/03/31 14:55:46;;;;;;;25.40;11.00;;;;;;;;;;4957339;28;20027;-73
2022/03/31 14:58:13;;;;;;;23.67;10.65;;;;;;;;;;4954619;28;20020;-71